sensor_id;sensor_type;location;lat;lon;timestamp;temperature;humidity
13976;DHT22;7062;49.792;9.946;2023-02-12T00:00:00;7.40;99.90
13976;DHT22;7062;49.792;9.946;2023-02-12T00:02:26;7.30;99.90
13976;DHT22;7062;49.792;9.946;2023-02-12T00:04:52;7.50;99.90
13976;DHT22;7062;49.792;9.946;2023-02-12T00:07:18;7.50;99.90
13976;DHT22;7062;49.792;9.946;2023-02-12T00:09:43;7.50;99.90
13976;DHT22;7062;49.792;9.946;2023-02-12T00:12:09;7.70;99.90
13976;DHT22;7062;49.792;9.946;2023-02-12T00:14:38;7.60;99.90
13976;DHT22;7062;49.792;9.946;2023-02-12T00:17:03;7.70;99.90
13976;DHT22;7062;49.792;9.946;2023-02-12T00:19:29;7.80;99.90
13976;DHT22;7062;49.792;9.946;2023-02-12T00:21:55;7.90;99.90
13976;DHT22;7062;49.792;9.946;2023-02-12T00:24:21;7.90;99.90
13976;DHT22;7062;49.792;9.946;2023-02-12T00:26:46;7.80;99.90
13976;DHT22;7062;49.792;9.946;2023-02-12T00:29:13;7.90;99.90
13976;DHT22;7062;49.792;9.946;2023-02-12T00:31:39;7.70;99.90
13976;DHT22;7062;49.792;9.946;2023-02-12T00:34:04;7.50;99.90
13976;DHT22;7062;49.792;9.946;2023-02-12T00:36:31;7.60;99.90
13976;DHT22;7062;49.792;9.946;2023-02-12T00:38:59;7.50;99.90
13976;DHT22;7062;49.792;9.946;2023-02-12T00:41:25;7.60;99.90
13976;DHT22;7062;49.792;9.946;2023-02-12T00:43:51;7.70;99.90
13976;DHT22;7062;49.792;9.946;2023-02-12T00:46:17;7.70;99.90
13976;DHT22;7062;49.792;9.946;2023-02-12T00:48:43;7.80;99.90
13976;DHT22;7062;49.792;9.946;2023-02-12T00:51:08;7.80;99.90
13976;DHT22;7062;49.792;9.946;2023-02-12T00:53:34;7.60;99.90
13976;DHT22;7062;49.792;9.946;2023-02-12T00:56:00;7.50;99.90
13976;DHT22;7062;49.792;9.946;2023-02-12T00:58:26;7.50;99.90
13976;DHT22;7062;49.792;9.946;2023-02-12T01:00:53;7.40;99.90
13976;DHT22;7062;49.792;9.946;2023-02-12T01:03:19;7.50;99.90
13976;DHT22;7062;49.792;9.946;2023-02-12T01:05:45;7.50;99.90
13976;DHT22;7062;49.792;9.946;2023-02-12T01:08:15;7.40;99.90
13976;DHT22;7062;49.792;9.946;2023-02-12T01:10:41;7.60;99.90
13976;DHT22;7062;49.792;9.946;2023-02-12T01:13:13;7.60;99.90
13976;DHT22;7062;49.792;9.946;2023-02-12T01:15:39;7.70;99.90
13976;DHT22;7062;49.792;9.946;2023-02-12T01:18:05;7.70;99.90
13976;DHT22;7062;49.792;9.946;2023-02-12T01:20:31;7.50;99.90
13976;DHT22;7062;49.792;9.946;2023-02-12T01:22:56;7.30;99.90
13976;DHT22;7062;49.792;9.946;2023-02-12T01:25:22;7.20;99.90
13976;DHT22;7062;49.792;9.946;2023-02-12T01:27:48;7.20;99.90
13976;DHT22;7062;49.792;9.946;2023-02-12T01:30:14;7.20;99.90
13976;DHT22;7062;49.792;9.946;2023-02-12T01:32:40;7.20;99.90
13976;DHT22;7062;49.792;9.946;2023-02-12T01:35:07;7.10;99.90
13976;DHT22;7062;49.792;9.946;2023-02-12T01:37:35;7.00;99.90
13976;DHT22;7062;49.792;9.946;2023-02-12T01:40:01;6.90;99.90
13976;DHT22;7062;49.792;9.946;2023-02-12T01:42:27;6.80;99.90
13976;DHT22;7062;49.792;9.946;2023-02-12T01:47:37;6.60;99.90
13976;DHT22;7062;49.792;9.946;2023-02-12T01:50:07;6.60;99.90
13976;DHT22;7062;49.792;9.946;2023-02-12T01:52:35;6.60;99.90
13976;DHT22;7062;49.792;9.946;2023-02-12T01:55:04;6.50;99.90
13976;DHT22;7062;49.792;9.946;2023-02-12T01:57:33;6.70;99.90
13976;DHT22;7062;49.792;9.946;2023-02-12T02:00:02;6.80;99.90
13976;DHT22;7062;49.792;9.946;2023-02-12T02:02:30;6.90;99.90
13976;DHT22;7062;49.792;9.946;2023-02-12T02:05:02;6.90;99.90
13976;DHT22;7062;49.792;9.946;2023-02-12T02:07:28;6.90;99.90
13976;DHT22;7062;49.792;9.946;2023-02-12T02:09:55;6.80;99.90
13976;DHT22;7062;49.792;9.946;2023-02-12T02:12:21;6.80;99.90
13976;DHT22;7062;49.792;9.946;2023-02-12T02:15:06;6.70;99.90
13976;DHT22;7062;49.792;9.946;2023-02-12T02:26:20;6.70;99.90
13976;DHT22;7062;49.792;9.946;2023-02-12T02:32:02;6.50;99.90
13976;DHT22;7062;49.792;9.946;2023-02-12T02:40:07;6.40;99.90
13976;DHT22;7062;49.792;9.946;2023-02-12T02:45:14;6.50;99.90
13976;DHT22;7062;49.792;9.946;2023-02-12T02:47:44;6.40;99.90
13976;DHT22;7062;49.792;9.946;2023-02-12T02:50:14;6.50;99.90
13976;DHT22;7062;49.792;9.946;2023-02-12T02:53:05;6.60;99.90
13976;DHT22;7062;49.792;9.946;2023-02-12T02:55:36;6.60;99.90
13976;DHT22;7062;49.792;9.946;2023-02-12T02:58:12;6.60;99.90
13976;DHT22;7062;49.792;9.946;2023-02-12T03:03:22;6.60;99.90
13976;DHT22;7062;49.792;9.946;2023-02-12T03:05:52;6.50;99.90
13976;DHT22;7062;49.792;9.946;2023-02-12T03:08:28;6.50;99.90
13976;DHT22;7062;49.792;9.946;2023-02-12T03:11:09;6.30;99.90
13976;DHT22;7062;49.792;9.946;2023-02-12T03:13:45;6.30;99.90
13976;DHT22;7062;49.792;9.946;2023-02-12T03:16:21;6.30;99.90
13976;DHT22;7062;49.792;9.946;2023-02-12T03:18:58;6.30;99.90
13976;DHT22;7062;49.792;9.946;2023-02-12T03:21:41;6.30;99.90
13976;DHT22;7062;49.792;9.946;2023-02-12T03:27:02;6.30;99.90
13976;DHT22;7062;49.792;9.946;2023-02-12T03:29:29;6.30;99.90
13976;DHT22;7062;49.792;9.946;2023-02-12T03:32:28;6.30;99.90
13976;DHT22;7062;49.792;9.946;2023-02-12T03:35:04;6.40;99.90
13976;DHT22;7062;49.792;9.946;2023-02-12T03:37:57;6.30;99.90
13976;DHT22;7062;49.792;9.946;2023-02-12T03:48:06;6.10;99.90
13976;DHT22;7062;49.792;9.946;2023-02-12T03:50:57;6.10;99.90
13976;DHT22;7062;49.792;9.946;2023-02-12T03:53:26;6.00;99.90
13976;DHT22;7062;49.792;9.946;2023-02-12T03:55:56;6.10;99.90
13976;DHT22;7062;49.792;9.946;2023-02-12T03:58:27;6.00;99.90
13976;DHT22;7062;49.792;9.946;2023-02-12T04:00:54;6.00;99.90
13976;DHT22;7062;49.792;9.946;2023-02-12T04:03:20;6.00;99.90
13976;DHT22;7062;49.792;9.946;2023-02-12T04:05:46;6.00;99.90
13976;DHT22;7062;49.792;9.946;2023-02-12T04:08:12;6.00;99.90
13976;DHT22;7062;49.792;9.946;2023-02-12T04:10:52;6.10;99.90
13976;DHT22;7062;49.792;9.946;2023-02-12T04:13:41;6.00;99.90
13976;DHT22;7062;49.792;9.946;2023-02-12T04:16:47;6.10;99.90
13976;DHT22;7062;49.792;9.946;2023-02-12T04:19:05;6.00;99.90
13976;DHT22;7062;49.792;9.946;2023-02-12T04:30:46;5.80;99.90
13976;DHT22;7062;49.792;9.946;2023-02-12T04:33:05;5.90;99.90
13976;DHT22;7062;49.792;9.946;2023-02-12T04:36:32;6.00;99.90
13976;DHT22;7062;49.792;9.946;2023-02-12T04:38:43;6.00;99.90
13976;DHT22;7062;49.792;9.946;2023-02-12T04:41:11;6.10;99.90
13976;DHT22;7062;49.792;9.946;2023-02-12T04:43:37;6.00;99.90
13976;DHT22;7062;49.792;9.946;2023-02-12T04:46:05;6.00;99.90
13976;DHT22;7062;49.792;9.946;2023-02-12T04:48:31;6.00;99.90
13976;DHT22;7062;49.792;9.946;2023-02-12T04:50:59;6.00;99.90
13976;DHT22;7062;49.792;9.946;2023-02-12T04:53:25;6.10;99.90
13976;DHT22;7062;49.792;9.946;2023-02-12T04:55:50;6.00;99.90
13976;DHT22;7062;49.792;9.946;2023-02-12T04:58:17;6.00;99.90
13976;DHT22;7062;49.792;9.946;2023-02-12T05:00:42;5.90;99.90
13976;DHT22;7062;49.792;9.946;2023-02-12T05:03:08;5.90;99.90
13976;DHT22;7062;49.792;9.946;2023-02-12T05:05:34;5.90;99.90
13976;DHT22;7062;49.792;9.946;2023-02-12T05:08:00;5.90;99.90
13976;DHT22;7062;49.792;9.946;2023-02-12T05:10:26;5.90;99.90
13976;DHT22;7062;49.792;9.946;2023-02-12T05:12:52;5.70;99.90
13976;DHT22;7062;49.792;9.946;2023-02-12T05:15:18;5.80;99.90
13976;DHT22;7062;49.792;9.946;2023-02-12T05:17:44;5.70;99.90
13976;DHT22;7062;49.792;9.946;2023-02-12T05:20:11;5.70;99.90
13976;DHT22;7062;49.792;9.946;2023-02-12T05:22:36;5.60;99.90
13976;DHT22;7062;49.792;9.946;2023-02-12T05:25:03;5.60;99.90
13976;DHT22;7062;49.792;9.946;2023-02-12T05:27:29;5.60;99.90
13976;DHT22;7062;49.792;9.946;2023-02-12T05:29:54;5.60;99.90
13976;DHT22;7062;49.792;9.946;2023-02-12T05:32:21;5.60;99.90
13976;DHT22;7062;49.792;9.946;2023-02-12T05:34:47;5.60;99.90
13976;DHT22;7062;49.792;9.946;2023-02-12T05:37:13;5.50;99.90
13976;DHT22;7062;49.792;9.946;2023-02-12T05:39:39;5.50;99.90
13976;DHT22;7062;49.792;9.946;2023-02-12T05:42:04;5.40;99.90
13976;DHT22;7062;49.792;9.946;2023-02-12T05:44:30;5.30;99.90
13976;DHT22;7062;49.792;9.946;2023-02-12T05:46:55;5.40;99.90
13976;DHT22;7062;49.792;9.946;2023-02-12T05:49:21;5.40;99.90
13976;DHT22;7062;49.792;9.946;2023-02-12T05:51:48;5.40;99.90
13976;DHT22;7062;49.792;9.946;2023-02-12T05:54:14;5.50;99.90
13976;DHT22;7062;49.792;9.946;2023-02-12T05:56:45;5.60;99.90
13976;DHT22;7062;49.792;9.946;2023-02-12T05:59:20;5.50;99.90
13976;DHT22;7062;49.792;9.946;2023-02-12T06:01:48;5.60;99.90
13976;DHT22;7062;49.792;9.946;2023-02-12T06:04:17;5.70;99.90
13976;DHT22;7062;49.792;9.946;2023-02-12T06:06:43;5.70;99.90
13976;DHT22;7062;49.792;9.946;2023-02-12T06:09:10;5.60;99.90
13976;DHT22;7062;49.792;9.946;2023-02-12T06:11:36;5.50;99.90
13976;DHT22;7062;49.792;9.946;2023-02-12T06:14:04;5.60;99.90
13976;DHT22;7062;49.792;9.946;2023-02-12T06:16:30;5.50;99.90
13976;DHT22;7062;49.792;9.946;2023-02-12T06:18:56;5.60;99.90
13976;DHT22;7062;49.792;9.946;2023-02-12T06:21:23;5.70;99.90
13976;DHT22;7062;49.792;9.946;2023-02-12T06:23:50;5.70;99.90
13976;DHT22;7062;49.792;9.946;2023-02-12T06:26:17;5.70;99.90
13976;DHT22;7062;49.792;9.946;2023-02-12T06:28:43;5.70;99.90
13976;DHT22;7062;49.792;9.946;2023-02-12T06:31:30;5.50;99.90
13976;DHT22;7062;49.792;9.946;2023-02-12T06:33:58;5.40;99.90
13976;DHT22;7062;49.792;9.946;2023-02-12T06:36:24;5.50;99.90
13976;DHT22;7062;49.792;9.946;2023-02-12T06:38:50;5.40;99.90
13976;DHT22;7062;49.792;9.946;2023-02-12T06:41:16;5.30;99.90
13976;DHT22;7062;49.792;9.946;2023-02-12T06:43:42;5.20;99.90
13976;DHT22;7062;49.792;9.946;2023-02-12T06:46:09;5.10;99.90
13976;DHT22;7062;49.792;9.946;2023-02-12T06:48:35;5.30;99.90
13976;DHT22;7062;49.792;9.946;2023-02-12T06:51:19;5.30;99.90
13976;DHT22;7062;49.792;9.946;2023-02-12T06:53:47;5.30;99.90
13976;DHT22;7062;49.792;9.946;2023-02-12T06:56:13;5.40;99.90
13976;DHT22;7062;49.792;9.946;2023-02-12T06:58:40;5.20;99.90
13976;DHT22;7062;49.792;9.946;2023-02-12T07:01:15;5.10;99.90
13976;DHT22;7062;49.792;9.946;2023-02-12T07:03:52;5.10;99.90
13976;DHT22;7062;49.792;9.946;2023-02-12T07:06:19;5.00;99.90
13976;DHT22;7062;49.792;9.946;2023-02-12T07:08:46;4.90;99.90
13976;DHT22;7062;49.792;9.946;2023-02-12T07:11:12;4.90;99.90
13976;DHT22;7062;49.792;9.946;2023-02-12T07:13:40;4.90;99.90
13976;DHT22;7062;49.792;9.946;2023-02-12T07:16:10;4.90;99.90
13976;DHT22;7062;49.792;9.946;2023-02-12T07:18:37;5.20;99.90
13976;DHT22;7062;49.792;9.946;2023-02-12T07:21:04;5.50;99.90
13976;DHT22;7062;49.792;9.946;2023-02-12T07:23:32;5.70;99.90
13976;DHT22;7062;49.792;9.946;2023-02-12T07:25:59;5.70;99.90
13976;DHT22;7062;49.792;9.946;2023-02-12T07:28:26;5.90;99.90
13976;DHT22;7062;49.792;9.946;2023-02-12T07:30:52;6.00;99.90
13976;DHT22;7062;49.792;9.946;2023-02-12T07:33:18;6.10;99.90
13976;DHT22;7062;49.792;9.946;2023-02-12T07:35:44;6.30;99.90
13976;DHT22;7062;49.792;9.946;2023-02-12T07:38:10;6.40;99.90
13976;DHT22;7062;49.792;9.946;2023-02-12T07:40:36;6.50;99.90
13976;DHT22;7062;49.792;9.946;2023-02-12T07:43:01;6.40;99.90
13976;DHT22;7062;49.792;9.946;2023-02-12T07:45:27;6.30;99.90
13976;DHT22;7062;49.792;9.946;2023-02-12T07:47:53;6.10;99.90
13976;DHT22;7062;49.792;9.946;2023-02-12T07:50:18;5.90;99.90
13976;DHT22;7062;49.792;9.946;2023-02-12T07:52:44;5.90;99.90
13976;DHT22;7062;49.792;9.946;2023-02-12T07:55:09;5.80;99.90
13976;DHT22;7062;49.792;9.946;2023-02-12T07:57:35;5.70;99.90
13976;DHT22;7062;49.792;9.946;2023-02-12T08:00:02;5.70;99.90
13976;DHT22;7062;49.792;9.946;2023-02-12T08:02:28;5.80;99.90
13976;DHT22;7062;49.792;9.946;2023-02-12T08:04:55;6.00;99.90
13976;DHT22;7062;49.792;9.946;2023-02-12T08:07:21;6.20;99.90
13976;DHT22;7062;49.792;9.946;2023-02-12T08:09:47;6.40;99.90
13976;DHT22;7062;49.792;9.946;2023-02-12T08:12:12;6.50;99.90
13976;DHT22;7062;49.792;9.946;2023-02-12T08:14:38;6.70;99.90
13976;DHT22;7062;49.792;9.946;2023-02-12T08:17:03;6.70;99.90
13976;DHT22;7062;49.792;9.946;2023-02-12T08:19:29;6.80;99.90
13976;DHT22;7062;49.792;9.946;2023-02-12T08:21:56;6.80;99.90
13976;DHT22;7062;49.792;9.946;2023-02-12T08:24:22;6.70;99.90
13976;DHT22;7062;49.792;9.946;2023-02-12T08:26:48;6.70;99.90
13976;DHT22;7062;49.792;9.946;2023-02-12T08:29:16;6.90;99.90
13976;DHT22;7062;49.792;9.946;2023-02-12T08:31:45;7.00;99.90
13976;DHT22;7062;49.792;9.946;2023-02-12T08:34:23;7.10;99.90
13976;DHT22;7062;49.792;9.946;2023-02-12T08:36:51;7.10;99.90
13976;DHT22;7062;49.792;9.946;2023-02-12T08:39:19;7.10;99.90
13976;DHT22;7062;49.792;9.946;2023-02-12T08:41:45;7.20;99.90
13976;DHT22;7062;49.792;9.946;2023-02-12T08:44:11;7.00;99.90
13976;DHT22;7062;49.792;9.946;2023-02-12T08:46:41;7.10;99.90
13976;DHT22;7062;49.792;9.946;2023-02-12T08:49:11;7.10;99.90
13976;DHT22;7062;49.792;9.946;2023-02-12T08:51:40;7.00;99.90
13976;DHT22;7062;49.792;9.946;2023-02-12T08:54:09;7.00;99.90
13976;DHT22;7062;49.792;9.946;2023-02-12T08:56:35;7.10;99.90
13976;DHT22;7062;49.792;9.946;2023-02-12T08:59:02;7.10;99.90
13976;DHT22;7062;49.792;9.946;2023-02-12T09:01:31;7.20;99.90
13976;DHT22;7062;49.792;9.946;2023-02-12T09:03:59;7.30;99.90
13976;DHT22;7062;49.792;9.946;2023-02-12T09:06:26;7.30;99.90
13976;DHT22;7062;49.792;9.946;2023-02-12T09:08:52;7.20;99.90
13976;DHT22;7062;49.792;9.946;2023-02-12T09:11:24;7.50;99.90
13976;DHT22;7062;49.792;9.946;2023-02-12T09:14:02;7.40;99.90
13976;DHT22;7062;49.792;9.946;2023-02-12T09:16:30;7.70;99.90
13976;DHT22;7062;49.792;9.946;2023-02-12T09:18:55;7.90;99.90
13976;DHT22;7062;49.792;9.946;2023-02-12T09:21:22;8.00;99.90
13976;DHT22;7062;49.792;9.946;2023-02-12T09:23:48;8.10;99.90
13976;DHT22;7062;49.792;9.946;2023-02-12T09:26:17;8.10;99.90
13976;DHT22;7062;49.792;9.946;2023-02-12T09:28:45;8.30;99.90
13976;DHT22;7062;49.792;9.946;2023-02-12T09:31:14;8.10;99.90
13976;DHT22;7062;49.792;9.946;2023-02-12T09:33:40;7.80;99.90
13976;DHT22;7062;49.792;9.946;2023-02-12T09:36:09;7.90;99.90
13976;DHT22;7062;49.792;9.946;2023-02-12T09:38:35;7.80;99.90
13976;DHT22;7062;49.792;9.946;2023-02-12T09:46:48;8.00;99.90
13976;DHT22;7062;49.792;9.946;2023-02-12T09:52:18;7.90;99.90
13976;DHT22;7062;49.792;9.946;2023-02-12T09:54:45;7.90;99.90
13976;DHT22;7062;49.792;9.946;2023-02-12T09:57:20;8.00;99.90
13976;DHT22;7062;49.792;9.946;2023-02-12T09:59:53;8.00;99.90
13976;DHT22;7062;49.792;9.946;2023-02-12T10:02:21;7.90;99.90
13976;DHT22;7062;49.792;9.946;2023-02-12T10:04:49;8.00;99.90
13976;DHT22;7062;49.792;9.946;2023-02-12T10:12:52;8.30;99.90
13976;DHT22;7062;49.792;9.946;2023-02-12T10:25:55;9.60;99.90
13976;DHT22;7062;49.792;9.946;2023-02-12T10:28:33;9.90;99.90
13976;DHT22;7062;49.792;9.946;2023-02-12T10:33:41;10.00;99.90
13976;DHT22;7062;49.792;9.946;2023-02-12T10:38:56;10.40;99.90
13976;DHT22;7062;49.792;9.946;2023-02-12T10:41:24;10.50;99.90
13976;DHT22;7062;49.792;9.946;2023-02-12T10:43:51;11.10;99.90
13976;DHT22;7062;49.792;9.946;2023-02-12T10:46:17;12.30;99.90
13976;DHT22;7062;49.792;9.946;2023-02-12T10:48:46;12.20;99.90
13976;DHT22;7062;49.792;9.946;2023-02-12T10:54:29;12.00;99.90
13976;DHT22;7062;49.792;9.946;2023-02-12T10:56:56;14.50;99.90
13976;DHT22;7062;49.792;9.946;2023-02-12T10:59:23;15.30;99.90
13976;DHT22;7062;49.792;9.946;2023-02-12T11:01:48;17.50;99.90
13976;DHT22;7062;49.792;9.946;2023-02-12T11:04:27;18.00;99.90
13976;DHT22;7062;49.792;9.946;2023-02-12T11:07:00;18.10;99.90
13976;DHT22;7062;49.792;9.946;2023-02-12T11:09:30;17.70;99.90
13976;DHT22;7062;49.792;9.946;2023-02-12T11:11:57;17.00;99.90
13976;DHT22;7062;49.792;9.946;2023-02-12T11:14:23;16.80;99.90
13976;DHT22;7062;49.792;9.946;2023-02-12T11:16:57;16.90;99.90
13976;DHT22;7062;49.792;9.946;2023-02-12T11:19:28;16.70;99.90
13976;DHT22;7062;49.792;9.946;2023-02-12T11:22:10;15.80;99.90
13976;DHT22;7062;49.792;9.946;2023-02-12T11:24:39;15.80;99.90
13976;DHT22;7062;49.792;9.946;2023-02-12T11:27:25;15.70;99.90
13976;DHT22;7062;49.792;9.946;2023-02-12T11:32:38;13.80;99.90
13976;DHT22;7062;49.792;9.946;2023-02-12T11:35:14;13.50;99.90
13976;DHT22;7062;49.792;9.946;2023-02-12T11:37:43;13.50;99.90
13976;DHT22;7062;49.792;9.946;2023-02-12T11:40:30;13.70;99.90
13976;DHT22;7062;49.792;9.946;2023-02-12T11:43:01;14.00;99.90
13976;DHT22;7062;49.792;9.946;2023-02-12T11:45:42;14.30;99.90
13976;DHT22;7062;49.792;9.946;2023-02-12T11:48:37;14.70;99.90
13976;DHT22;7062;49.792;9.946;2023-02-12T11:51:07;15.10;99.90
13976;DHT22;7062;49.792;9.946;2023-02-12T11:53:39;15.20;99.90
13976;DHT22;7062;49.792;9.946;2023-02-12T11:56:12;14.70;99.90
13976;DHT22;7062;49.792;9.946;2023-02-12T11:58:39;15.30;99.90
13976;DHT22;7062;49.792;9.946;2023-02-12T12:01:19;14.80;99.90
13976;DHT22;7062;49.792;9.946;2023-02-12T12:04:12;14.70;99.90
13976;DHT22;7062;49.792;9.946;2023-02-12T12:06:59;14.50;99.90
13976;DHT22;7062;49.792;9.946;2023-02-12T12:10:28;15.00;99.90
13976;DHT22;7062;49.792;9.946;2023-02-12T12:12:42;14.60;99.90
13976;DHT22;7062;49.792;9.946;2023-02-12T12:15:28;13.90;99.90
13976;DHT22;7062;49.792;9.946;2023-02-12T12:24:29;13.80;99.90
13976;DHT22;7062;49.792;9.946;2023-02-12T12:30:25;13.70;99.90
13976;DHT22;7062;49.792;9.946;2023-02-12T12:32:54;13.70;99.90
13976;DHT22;7062;49.792;9.946;2023-02-12T12:35:40;13.80;99.90
13976;DHT22;7062;49.792;9.946;2023-02-12T12:38:37;13.30;99.90
13976;DHT22;7062;49.792;9.946;2023-02-12T12:58:17;11.80;99.90
13976;DHT22;7062;49.792;9.946;2023-02-12T13:11:33;12.30;99.90
13976;DHT22;7062;49.792;9.946;2023-02-12T13:16:54;12.20;99.90
13976;DHT22;7062;49.792;9.946;2023-02-12T13:25:33;11.90;99.90
13976;DHT22;7062;49.792;9.946;2023-02-12T13:28:01;11.60;99.90
13976;DHT22;7062;49.792;9.946;2023-02-12T13:35:24;11.30;99.90
13976;DHT22;7062;49.792;9.946;2023-02-12T13:37:54;11.10;99.90
13976;DHT22;7062;49.792;9.946;2023-02-12T13:40:26;11.10;99.90
13976;DHT22;7062;49.792;9.946;2023-02-12T13:45:51;11.20;99.90
13976;DHT22;7062;49.792;9.946;2023-02-12T13:53:58;11.30;99.90
13976;DHT22;7062;49.792;9.946;2023-02-12T13:56:45;11.20;99.90
13976;DHT22;7062;49.792;9.946;2023-02-12T14:05:24;10.90;99.90
13976;DHT22;7062;49.792;9.946;2023-02-12T14:08:02;10.60;99.90
13976;DHT22;7062;49.792;9.946;2023-02-12T14:10:38;10.70;99.90
13976;DHT22;7062;49.792;9.946;2023-02-12T14:13:22;10.80;99.90
13976;DHT22;7062;49.792;9.946;2023-02-12T14:15:54;10.90;99.90
13976;DHT22;7062;49.792;9.946;2023-02-12T14:23:39;11.20;99.90
13976;DHT22;7062;49.792;9.946;2023-02-12T14:26:13;11.20;99.90
13976;DHT22;7062;49.792;9.946;2023-02-12T14:33:49;11.10;99.90
13976;DHT22;7062;49.792;9.946;2023-02-12T14:41:54;11.00;99.90
13976;DHT22;7062;49.792;9.946;2023-02-12T14:49:45;10.70;99.90
13976;DHT22;7062;49.792;9.946;2023-02-12T14:55:02;10.50;99.90
13976;DHT22;7062;49.792;9.946;2023-02-12T14:57:39;10.60;99.90
13976;DHT22;7062;49.792;9.946;2023-02-12T15:05:30;10.90;99.90
13976;DHT22;7062;49.792;9.946;2023-02-12T15:08:07;11.00;99.90
13976;DHT22;7062;49.792;9.946;2023-02-12T15:10:40;10.90;99.90
13976;DHT22;7062;49.792;9.946;2023-02-12T15:16:07;10.60;99.90
13976;DHT22;7062;49.792;9.946;2023-02-12T15:21:25;10.70;99.90
13976;DHT22;7062;49.792;9.946;2023-02-12T15:24:08;10.60;99.90
13976;DHT22;7062;49.792;9.946;2023-02-12T15:26:46;10.60;99.90
13976;DHT22;7062;49.792;9.946;2023-02-12T15:29:30;10.60;99.90
13976;DHT22;7062;49.792;9.946;2023-02-12T15:32:03;10.60;99.90
13976;DHT22;7062;49.792;9.946;2023-02-12T15:34:31;10.50;99.90
13976;DHT22;7062;49.792;9.946;2023-02-12T15:37:01;10.50;99.90
13976;DHT22;7062;49.792;9.946;2023-02-12T15:39:42;10.30;99.90
13976;DHT22;7062;49.792;9.946;2023-02-12T15:42:29;10.30;99.90
13976;DHT22;7062;49.792;9.946;2023-02-12T15:47:39;10.30;99.90
13976;DHT22;7062;49.792;9.946;2023-02-12T15:50:10;10.40;99.90
13976;DHT22;7062;49.792;9.946;2023-02-12T15:52:38;10.40;99.90
13976;DHT22;7062;49.792;9.946;2023-02-12T15:55:06;10.40;99.90
13976;DHT22;7062;49.792;9.946;2023-02-12T15:57:36;10.40;99.90
13976;DHT22;7062;49.792;9.946;2023-02-12T16:00:08;10.30;99.90
13976;DHT22;7062;49.792;9.946;2023-02-12T16:02:35;10.30;99.90
13976;DHT22;7062;49.792;9.946;2023-02-12T16:05:02;10.30;99.90
13976;DHT22;7062;49.792;9.946;2023-02-12T16:07:32;10.30;99.90
13976;DHT22;7062;49.792;9.946;2023-02-12T16:09:59;10.30;99.90
13976;DHT22;7062;49.792;9.946;2023-02-12T16:12:30;10.40;99.90
13976;DHT22;7062;49.792;9.946;2023-02-12T16:14:58;10.50;99.90
13976;DHT22;7062;49.792;9.946;2023-02-12T16:17:32;10.50;99.90
13976;DHT22;7062;49.792;9.946;2023-02-12T16:20:27;10.50;99.90
13976;DHT22;7062;49.792;9.946;2023-02-12T16:22:52;10.50;99.90
13976;DHT22;7062;49.792;9.946;2023-02-12T16:25:23;10.50;99.90
13976;DHT22;7062;49.792;9.946;2023-02-12T16:28:20;10.50;99.90
13976;DHT22;7062;49.792;9.946;2023-02-12T16:30:49;10.50;99.90
13976;DHT22;7062;49.792;9.946;2023-02-12T16:36:25;10.50;99.90
13976;DHT22;7062;49.792;9.946;2023-02-12T16:38:53;10.40;99.90
13976;DHT22;7062;49.792;9.946;2023-02-12T16:43:47;10.40;99.90
13976;DHT22;7062;49.792;9.946;2023-02-12T16:46:14;10.40;99.90
13976;DHT22;7062;49.792;9.946;2023-02-12T16:48:47;10.40;99.90
13976;DHT22;7062;49.792;9.946;2023-02-12T16:51:24;10.40;99.90
13976;DHT22;7062;49.792;9.946;2023-02-12T16:53:51;10.30;99.90
13976;DHT22;7062;49.792;9.946;2023-02-12T16:56:19;10.40;99.90
13976;DHT22;7062;49.792;9.946;2023-02-12T16:58:47;10.40;99.90
13976;DHT22;7062;49.792;9.946;2023-02-12T17:01:20;10.30;99.90
13976;DHT22;7062;49.792;9.946;2023-02-12T17:03:46;10.40;99.90
13976;DHT22;7062;49.792;9.946;2023-02-12T17:06:22;10.30;99.90
13976;DHT22;7062;49.792;9.946;2023-02-12T17:08:49;10.30;99.90
13976;DHT22;7062;49.792;9.946;2023-02-12T17:11:15;10.20;99.90
13976;DHT22;7062;49.792;9.946;2023-02-12T17:13:43;10.20;99.90
13976;DHT22;7062;49.792;9.946;2023-02-12T17:16:09;10.20;99.90
13976;DHT22;7062;49.792;9.946;2023-02-12T17:18:35;10.10;99.90
13976;DHT22;7062;49.792;9.946;2023-02-12T17:21:05;10.10;99.90
13976;DHT22;7062;49.792;9.946;2023-02-12T17:23:32;10.10;99.90
13976;DHT22;7062;49.792;9.946;2023-02-12T17:25:58;10.00;99.90
13976;DHT22;7062;49.792;9.946;2023-02-12T17:28:24;10.00;99.90
13976;DHT22;7062;49.792;9.946;2023-02-12T17:30:50;10.00;99.90
13976;DHT22;7062;49.792;9.946;2023-02-12T17:33:17;10.10;99.90
13976;DHT22;7062;49.792;9.946;2023-02-12T17:35:43;10.10;99.90
13976;DHT22;7062;49.792;9.946;2023-02-12T17:38:09;10.10;99.90
13976;DHT22;7062;49.792;9.946;2023-02-12T17:40:36;10.10;99.90
13976;DHT22;7062;49.792;9.946;2023-02-12T17:43:06;10.20;99.90
13976;DHT22;7062;49.792;9.946;2023-02-12T17:45:32;10.10;99.90
13976;DHT22;7062;49.792;9.946;2023-02-12T17:47:57;10.10;99.90
13976;DHT22;7062;49.792;9.946;2023-02-12T17:50:23;10.10;99.90
13976;DHT22;7062;49.792;9.946;2023-02-12T17:52:49;10.10;99.90
13976;DHT22;7062;49.792;9.946;2023-02-12T17:55:15;10.00;99.90
13976;DHT22;7062;49.792;9.946;2023-02-12T17:57:42;10.10;99.90
13976;DHT22;7062;49.792;9.946;2023-02-12T18:00:10;10.10;99.90
13976;DHT22;7062;49.792;9.946;2023-02-12T18:02:36;10.00;99.90
13976;DHT22;7062;49.792;9.946;2023-02-12T18:05:02;10.00;99.90
13976;DHT22;7062;49.792;9.946;2023-02-12T18:07:27;10.00;99.90
13976;DHT22;7062;49.792;9.946;2023-02-12T18:09:53;10.00;99.90
13976;DHT22;7062;49.792;9.946;2023-02-12T18:12:19;10.00;99.90
13976;DHT22;7062;49.792;9.946;2023-02-12T18:14:44;10.00;99.90
13976;DHT22;7062;49.792;9.946;2023-02-12T18:17:10;9.90;99.90
13976;DHT22;7062;49.792;9.946;2023-02-12T18:19:36;9.90;99.90
13976;DHT22;7062;49.792;9.946;2023-02-12T18:22:01;9.90;99.90
13976;DHT22;7062;49.792;9.946;2023-02-12T18:24:27;9.90;99.90
13976;DHT22;7062;49.792;9.946;2023-02-12T18:26:55;9.90;99.90
13976;DHT22;7062;49.792;9.946;2023-02-12T18:29:20;9.80;99.90
13976;DHT22;7062;49.792;9.946;2023-02-12T18:31:46;9.80;99.90
13976;DHT22;7062;49.792;9.946;2023-02-12T18:34:11;9.90;99.90
13976;DHT22;7062;49.792;9.946;2023-02-12T18:36:37;9.90;99.90
13976;DHT22;7062;49.792;9.946;2023-02-12T18:39:03;9.90;99.90
13976;DHT22;7062;49.792;9.946;2023-02-12T18:41:30;9.90;99.90
13976;DHT22;7062;49.792;9.946;2023-02-12T18:43:57;9.70;99.90
13976;DHT22;7062;49.792;9.946;2023-02-12T18:46:28;9.70;99.90
13976;DHT22;7062;49.792;9.946;2023-02-12T18:48:54;9.70;99.90
13976;DHT22;7062;49.792;9.946;2023-02-12T18:51:22;9.70;99.90
13976;DHT22;7062;49.792;9.946;2023-02-12T18:53:59;9.70;99.90
13976;DHT22;7062;49.792;9.946;2023-02-12T18:56:30;9.70;99.90
13976;DHT22;7062;49.792;9.946;2023-02-12T18:59:00;9.60;99.90
13976;DHT22;7062;49.792;9.946;2023-02-12T19:01:27;9.50;99.90
13976;DHT22;7062;49.792;9.946;2023-02-12T19:03:54;9.60;99.90
13976;DHT22;7062;49.792;9.946;2023-02-12T19:06:21;9.70;99.90
13976;DHT22;7062;49.792;9.946;2023-02-12T19:08:47;9.60;99.90
13976;DHT22;7062;49.792;9.946;2023-02-12T19:11:13;9.70;99.90
13976;DHT22;7062;49.792;9.946;2023-02-12T19:13:39;9.70;99.90
13976;DHT22;7062;49.792;9.946;2023-02-12T19:16:11;9.60;99.90
13976;DHT22;7062;49.792;9.946;2023-02-12T19:18:37;9.60;99.90
13976;DHT22;7062;49.792;9.946;2023-02-12T19:21:08;9.50;99.90
13976;DHT22;7062;49.792;9.946;2023-02-12T19:23:34;9.40;99.90